Flight Track Log - Related Links

Times and Time Zones

All times are in EDT time to prevent confusion due to time zone crossing. See the DAL6232 flight status page for this flight to view local times or setup timezone preferences in your user account.

Time Position Orientation Groundspeed Altitude Reporting Facility
EDT Latitude Longitude Course Direction KTS MPH feet Rate Location/Type
Sun 06:16:03 AM 42.9333 -78.7500 200° South 153 176 2,000  Level Buffalo TRACON
Sun 06:16:33 AM 42.9000 -78.7667 200° South 154 177 3,100 2,172 Climbing Buffalo TRACON
Sun 06:17:59 AM 42.8533 -78.7028 135° Southeast 284 327 6,200 2,425 Climbing Cleveland Center
Sun 06:18:59 AM 42.8517 -78.6008 91° East 295 339 9,000 2,650 Climbing Cleveland Center
Sun 06:19:59 AM 42.8514 -78.4678 90° East 300 345 11,500 2,400 Climbing Cleveland Center
Sun 06:20:59 AM 42.8469 -78.3375 93° East 325 374 13,800 2,300 Climbing Cleveland Center
Sun 06:21:59 AM 42.8461 -78.1931 90° East 356 410 16,100 2,150 Climbing Cleveland Center
Sun 06:22:59 AM 42.8408 -78.0433 93° East 375 432 18,100 1,800 Climbing Cleveland Center
Sun 06:23:59 AM 42.8375 -77.8906 92° East 395 455 19,700 1,450 Climbing Cleveland Center
Sun 06:24:59 AM 42.8356 -77.7292 91° East 406 467 21,000 650 Climbing Cleveland Center
Sun 06:25:59 AM 42.8314 -77.5622 92° East 424 488 21,000  Level Cleveland Center
Sun 06:28:18 AM 42.8242 -77.1942 91° East 444 511 21,000  Level Boston Center
Sun 06:29:18 AM 42.8211 -77.0153 91° East 438 504 21,000  Level Boston Center
Sun 06:30:18 AM 42.7706 -76.8700 115° Southeast 415 478 21,000  Level Boston Center
Sun 06:31:18 AM 42.7089 -76.7356 122° Southeast 415 478 21,000  Level Boston Center
Sun 06:32:18 AM 42.6558 -76.5936 117° Southeast 420 483 21,000  Level Boston Center
Sun 06:33:18 AM 42.6069 -76.4492 115° Southeast 420 483 21,000  Level Boston Center
Sun 06:34:18 AM 42.5597 -76.3078 114° Southeast 420 483 21,000  Level Boston Center
Sun 06:35:18 AM 42.5142 -76.1756 115° Southeast 420 483 21,000  Level Boston Center
Sun 06:36:18 AM 42.4644 -76.0344 115° Southeast 415 478 21,000  Level Boston Center
Sun 06:37:18 AM 42.4111 -75.8739 114° Southeast 415 478 21,000  Level Boston Center
Sun 06:38:18 AM 42.3608 -75.7361 116° Southeast 415 478 21,000  Level Boston Center
Sun 06:39:18 AM 42.3086 -75.5903 116° Southeast 415 478 21,000  Level Boston Center
Sun 06:40:18 AM 42.2664 -75.4589 113° Southeast 421 484 21,000  Level Boston Center
Sun 06:41:18 AM 42.2139 -75.3164 116° Southeast 426 490 21,000  Level Boston Center
Sun 06:42:18 AM 42.1633 -75.1711 115° Southeast 421 484 21,000  Level Boston Center
Sun 06:43:18 AM 42.1042 -75.0203 118° Southeast 421 484 21,000  Level Boston Center
Sun 06:44:18 AM 42.0533 -74.8756 115° Southeast 416 479 21,000  Level Boston Center
Sun 06:45:18 AM 42.0061 -74.7422 115° Southeast 416 479 21,000  Level Boston Center
Sun 06:46:18 AM 41.9567 -74.6036 116° Southeast 416 479 21,000 -100 Level Boston Center
Sun 06:47:18 AM 41.8989 -74.4539 117° Southeast 416 479 20,800 -500 Descending Boston Center
Sun 06:48:18 AM 41.8592 -74.3494 117° Southeast 404 465 20,000 -400 Descending Boston Center
Sun 06:49:18 AM 41.8011 -74.1917 116° Southeast 396 456 20,000  Level Boston Center
Sun 06:50:18 AM 41.7553 -74.0597 115° Southeast 396 456 20,000  Level Boston Center
Sun 06:51:51 AM 41.6597 -73.8892 127° Southeast 385 443 20,000 -39 Level New York Center
Sun 06:52:51 AM 41.5528 -73.9231 193° South 301 346 19,900 -49 Descending New York Center
Sun 06:53:54 AM 41.4631 -73.9992 212° Southwest 330 380 19,900 50 Level New York Center
Sun 06:54:52 AM 41.3822 -74.0697 213° Southwest 335 386 20,000 50 Climbing New York Center
Sun 06:55:53 AM 41.3114 -74.1436 218° Southwest 335 386 20,000  Level New York Center
Sun 06:56:51 AM 41.2611 -74.2267 231° Southwest 331 381 20,000  Level New York Center
Sun 06:57:51 AM 41.2058 -74.3258 233° Southwest 336 387 20,000  Level New York Center
Sun 06:58:52 AM 41.1531 -74.4194 233° Southwest 336 387 20,000 -347 Level New York Center
Sun 06:59:52 AM 41.1019 -74.5242 237° Southwest 336 387 19,300 -526 Descending New York Center
Sun 07:00:46 AM 41.0167 -74.5667 201° Southwest 327 376 19,000 -150 Descending New York TRACON
Sun 07:01:52 AM 40.9667 -74.4500 120° Southeast 354 407 19,000  Level New York TRACON
Sun 07:02:52 AM 40.9500 -74.3333 101° East 354 407 19,000  Level New York TRACON
Sun 07:03:52 AM 40.9333 -74.2000 99° East 354 407 19,000  Level New York TRACON
Sun 07:04:46 AM 40.8833 -74.1167 128° Southeast 346 398 19,000 -800 Level New York TRACON
Sun 07:05:52 AM 40.7833 -74.0833 166° South 324 373 17,400 -1,619 Descending New York TRACON
Sun 07:06:52 AM 40.7333 -73.9833 123° Southeast 324 373 15,600 -1,900 Descending New York TRACON
Sun 07:07:52 AM 40.6833 -73.9000 128° Southeast 326 375 13,600 -1,238 Descending New York TRACON
Sun 07:08:58 AM 40.6000 -73.9167 189° South 286 329 13,000 -300 Descending New York TRACON
Sun 07:09:52 AM 40.5333 -73.9500 201° Southwest 289 333 13,000  Level New York TRACON
Sun 07:10:52 AM 40.4500 -73.9333 171° South 300 345 13,000 -600 Level New York TRACON
Sun 07:11:52 AM 40.3833 -73.8833 150° Southeast 302 348 11,800 -1,550 Descending New York TRACON
Sun 07:12:52 AM 40.3333 -73.8000 128° Southeast 294 338 9,900 -1,842 Descending New York TRACON
Sun 07:13:46 AM 40.3167 -73.7167 105° East 299 344 8,300 -1,750 Descending New York TRACON
Sun 07:14:52 AM 40.3667 -73.6333 52° Northeast 284 327 6,400 -1,900 Descending New York TRACON
Sun 07:15:46 AM 40.4333 -73.5667 37° Northeast 285 328 4,500 -1,263 Descending New York TRACON
Sun 07:16:46 AM 40.5000 -73.5167 30° Northeast 281 323 4,000 -333 Descending New York TRACON
Sun 07:17:52 AM 40.5667 -73.4833 21° North 277 319 3,800 -429 Descending New York TRACON
Sun 07:18:52 AM 40.6333 -73.5000 349° North 235 270 3,100 -684 Descending New York TRACON
Sun 07:19:46 AM 40.6833 -73.5167 346° North 204 235 2,500 -500 Descending New York TRACON
Sun 07:20:52 AM 40.7167 -73.5833 303° West 160 184 2,100 -238 Descending New York TRACON
Sun 07:21:52 AM 40.7333 -73.6333 294° West 155 178 2,000 -48 Descending New York TRACON
Sun 07:22:58 AM 40.7333 -73.6833 270° West 140 161 2,000 -250 Level New York TRACON
Sun 07:23:52 AM 40.7000 -73.7000 201° Southwest 129 148 1,500 -632 Descending New York TRACON
Sun 07:24:52 AM 40.6833 -73.7333 237° Southwest 126 145 800 -700 Descending New York TRACON

Login

Don't have an account? Register now (free) for customized features, flight alerts, and more!